Time;durP1;ratioP1;P1;durP2;ratioP2;P2;SDS_P1;SDS_P2;PMS_P1;PMS_P2;Temp;Humidity;BMP_temperature;BMP_pressure;BME280_temperature;BME280_humidity;BME280_pressure;Samples;Min_cycle;Max_cycle;Signal;HPM_P1;HPM_P2
2023/09/12 00:00:24;;;;;;;1.13;0.90;;;24.00;70.60;;;;;;6418343;27;20108;-48
2023/09/12 00:03:25;;;;;;;2.25;1.02;;;24.00;70.70;;;;;;6417836;27;20035;-50
2023/09/12 00:06:27;;;;;;;1.23;1.00;;;24.00;70.60;;;;;;6412688;27;20094;-52
2023/09/12 00:09:30;;;;;;;1.42;0.80;;;24.10;70.80;;;;;;6411162;27;20050;-49
2023/09/12 00:12:33;;;;;;;1.17;0.90;;;24.00;70.70;;;;;;6411451;27;20026;-49
2023/09/12 00:15:34;;;;;;;1.10;0.90;;;24.00;70.50;;;;;;6417613;27;20042;-49
2023/09/12 00:18:36;;;;;;;1.17;0.80;;;23.90;70.50;;;;;;6421443;27;20034;-50
2023/09/12 00:21:38;;;;;;;1.52;0.90;;;24.00;70.60;;;;;;6422618;27;20056;-51
2023/09/12 00:24:39;;;;;;;1.60;1.00;;;24.00;70.50;;;;;;6424186;27;20030;-51
2023/09/12 00:27:44;;;;;;;1.40;1.10;;;24.10;71.40;;;;;;6421364;27;20043;-51
2023/09/12 00:30:46;;;;;;;1.48;1.05;;;24.00;70.40;;;;;;6422655;27;20064;-49
2023/09/12 00:33:47;;;;;;;1.88;1.05;;;24.10;70.70;;;;;;6421929;27;20107;-50
2023/09/12 00:36:49;;;;;;;1.23;1.13;;;24.00;70.70;;;;;;6422644;27;20084;-51
2023/09/12 00:39:50;;;;;;;2.15;1.00;;;23.90;70.70;;;;;;6420262;27;20035;-52
2023/09/12 00:42:53;;;;;;;1.00;0.80;;;23.90;70.70;;;;;;6426309;27;20064;-50
2023/09/12 00:45:54;;;;;;;2.03;0.93;;;23.90;70.80;;;;;;6408991;27;20045;-47
2023/09/12 00:48:59;;;;;;;1.48;1.08;;;23.90;70.50;;;;;;6423054;27;20030;-52
2023/09/12 00:52:02;;;;;;;1.33;1.05;;;24.00;70.80;;;;;;6423769;27;20044;-48
2023/09/12 00:55:04;;;;;;;2.28;1.00;;;23.90;70.90;;;;;;6427046;27;20026;-49
2023/09/12 00:58:07;;;;;;;1.23;0.90;;;23.90;70.90;;;;;;6426323;27;20031;-52
2023/09/12 01:01:09;;;;;;;1.02;0.93;;;23.80;70.70;;;;;;6426966;27;20058;-48
2023/09/12 01:04:11;;;;;;;1.02;0.77;;;23.70;70.90;;;;;;6427607;27;20050;-49
2023/09/12 01:07:29;;;;;;;0.82;0.68;;;23.90;70.70;;;;;;6428663;27;20101;-51
2023/09/12 01:10:31;;;;;;;1.60;1.00;;;23.80;70.80;;;;;;6427567;27;20042;-48
2023/09/12 01:13:33;;;;;;;1.67;1.00;;;24.10;71.50;;;;;;6424537;27;20056;-50
2023/09/12 01:16:39;;;;;;;1.80;1.00;;;23.90;71.00;;;;;;6425751;27;20042;-49
2023/09/12 01:19:41;;;;;;;1.88;1.00;;;23.90;70.90;;;;;;6425847;27;20043;-52
2023/09/12 01:22:56;;;;;;;1.80;1.00;;;23.90;71.20;;;;;;6424859;27;20047;-50
2023/09/12 01:26:20;;;;;;;2.05;1.00;;;23.80;71.20;;;;;;6423547;27;20045;-52
2023/09/12 01:29:23;;;;;;;2.45;1.02;;;23.80;71.30;;;;;;6424589;27;20047;-52
2023/09/12 01:32:26;;;;;;;1.48;1.35;;;23.80;71.40;;;;;;6428169;27;20031;-51
2023/09/12 01:35:28;;;;;;;1.00;0.90;;;23.60;71.30;;;;;;6427877;27;20074;-49
2023/09/12 01:38:30;;;;;;;1.60;0.80;;;23.70;71.40;;;;;;6426777;27;20098;-51
2023/09/12 01:41:39;;;;;;;1.15;1.00;;;23.80;71.60;;;;;;6407753;27;20027;-49
2023/09/12 01:44:44;;;;;;;1.13;0.90;;;23.90;71.60;;;;;;6408131;27;20076;-47
2023/09/12 01:47:49;;;;;;;1.30;0.98;;;23.90;71.50;;;;;;6424112;27;20046;-49
2023/09/12 01:50:52;;;;;;;1.10;0.90;;;23.90;71.50;;;;;;6428065;27;20043;-48
2023/09/12 01:53:54;;;;;;;1.40;1.10;;;23.70;71.20;;;;;;6427723;27;20030;-50
2023/09/12 01:56:57;;;;;;;1.40;0.85;;;23.90;71.30;;;;;;6429543;27;20066;-50
2023/09/12 02:00:00;;;;;;;1.75;1.08;;;23.70;71.30;;;;;;6430388;27;20046;-48
2023/09/12 02:03:03;;;;;;;1.40;0.90;;;23.70;71.30;;;;;;6430283;27;20035;-51
2023/09/12 02:06:05;;;;;;;1.88;0.93;;;23.70;71.30;;;;;;6428505;27;20042;-48
2023/09/12 02:09:06;;;;;;;2.03;1.13;;;24.00;71.60;;;;;;6432334;27;20018;-48
2023/09/12 02:12:11;;;;;;;1.52;0.93;;;23.90;71.70;;;;;;6432560;27;20034;-49
2023/09/12 02:15:13;;;;;;;1.08;0.90;;;23.80;71.60;;;;;;6433197;27;20033;-48
2023/09/12 02:18:15;;;;;;;1.45;1.10;;;23.60;71.50;;;;;;6433384;27;20034;-49
2023/09/12 02:21:16;;;;;;;1.85;1.10;;;23.60;69.70;;;;;;6432554;27;20030;-49
2023/09/12 02:24:21;;;;;;;1.48;1.13;;;23.70;71.70;;;;;;6433033;27;20030;-48
2023/09/12 02:27:23;;;;;;;2.10;1.38;;;23.50;71.50;;;;;;6432584;27;20064;-50
2023/09/12 02:30:29;;;;;;;4.18;1.38;;;23.70;71.70;;;;;;6432588;27;20018;-51
2023/09/12 02:33:30;;;;;;;2.75;1.40;;;23.70;71.60;;;;;;6432772;27;20082;-50
2023/09/12 02:36:32;;;;;;;3.13;1.60;;;23.70;71.90;;;;;;6432992;27;20050;-49
2023/09/12 02:39:34;;;;;;;2.47;1.35;;;23.70;71.90;;;;;;6432671;27;20028;-49
2023/09/12 02:42:36;;;;;;;1.30;1.05;;;23.70;72.20;;;;;;6432352;27;20035;-51
2023/09/12 02:45:38;;;;;;;2.42;1.10;;;23.60;72.10;;;;;;6432652;27;20025;-51
2023/09/12 02:48:40;;;;;;;1.25;0.90;;;23.60;71.90;;;;;;6430611;27;20035;-48
2023/09/12 02:51:42;;;;;;;1.67;1.50;;;23.60;71.40;;;;;;6431537;27;20039;-47
2023/09/12 02:54:43;;;;;;;2.00;1.30;;;23.80;72.00;;;;;;6432300;27;20022;-48
2023/09/12 02:57:46;;;;;;;1.42;0.88;;;23.60;71.90;;;;;;6432517;27;20046;-51
2023/09/12 03:00:54;;;;;;;1.50;0.98;;;23.60;72.10;;;;;;6432298;27;20061;-49
2023/09/12 03:03:57;;;;;;;2.20;1.30;;;23.70;72.00;;;;;;6432731;27;20022;-49
2023/09/12 03:06:59;;;;;;;1.52;1.00;;;23.70;72.10;;;;;;6432664;27;20042;-48
2023/09/12 03:10:01;;;;;;;1.70;1.50;;;23.60;72.10;;;;;;6432592;27;20018;-50
2023/09/12 03:13:03;;;;;;;1.45;1.20;;;23.70;72.20;;;;;;6432677;27;20029;-50
2023/09/12 03:16:12;;;;;;;1.70;1.00;;;23.70;72.10;;;;;;6432504;27;20053;-49
2023/09/12 03:19:13;;;;;;;1.75;1.15;;;23.70;72.30;;;;;;6413929;27;20046;-51
2023/09/12 03:22:15;;;;;;;1.42;1.10;;;23.60;72.40;;;;;;6432624;27;20044;-51
2023/09/12 03:25:17;;;;;;;2.55;1.17;;;23.60;72.50;;;;;;6432832;27;20055;-47
2023/09/12 03:28:19;;;;;;;1.40;1.05;;;23.60;72.50;;;;;;6432884;27;20030;-49
2023/09/12 03:31:21;;;;;;;1.98;1.35;;;23.60;72.50;;;;;;6432547;27;20026;-48
2023/09/12 03:34:23;;;;;;;1.80;1.35;;;23.60;72.30;;;;;;6431973;27;20049;-49
2023/09/12 03:37:27;;;;;;;3.10;1.52;;;23.70;72.70;;;;;;6432332;27;20026;-51
2023/09/12 03:40:29;;;;;;;2.90;1.40;;;23.50;72.50;;;;;;6432214;27;20151;-48
2023/09/12 03:43:32;;;;;;;2.38;1.13;;;23.50;72.70;;;;;;6414433;27;20015;-48
2023/09/12 03:46:34;;;;;;;1.83;1.10;;;23.60;72.90;;;;;;6432245;27;20082;-50
2023/09/12 03:49:39;;;;;;;2.70;1.52;;;23.50;73.00;;;;;;6432088;27;20019;-52
2023/09/12 03:52:43;;;;;;;2.03;1.40;;;23.60;70.40;;;;;;6431939;27;20022;-52
2023/09/12 03:55:45;;;;;;;2.10;1.48;;;23.50;73.00;;;;;;6431715;27;20014;-51
2023/09/12 03:58:46;;;;;;;1.88;1.00;;;23.60;73.20;;;;;;6429443;27;20029;-50
2023/09/12 04:01:49;;;;;;;2.05;1.20;;;23.40;73.20;;;;;;6431485;27;20031;-50
2023/09/12 04:04:51;;;;;;;1.90;1.20;;;23.60;73.20;;;;;;6431522;27;20046;-50
2023/09/12 04:07:55;;;;;;;1.90;1.50;;;23.70;73.20;;;;;;6430842;27;20034;-51
2023/09/12 04:10:56;;;;;;;1.75;1.08;;;23.50;73.10;;;;;;6410902;27;20022;-45
2023/09/12 04:13:58;;;;;;;2.28;1.25;;;23.50;73.20;;;;;;6431403;27;20074;-49
2023/09/12 04:17:00;;;;;;;2.63;1.50;;;23.60;73.20;;;;;;6429937;27;20049;-49
2023/09/12 04:20:04;;;;;;;1.88;1.50;;;23.40;73.30;;;;;;6430652;27;20049;-49
2023/09/12 04:23:06;;;;;;;1.95;1.60;;;23.50;72.30;;;;;;6430718;27;20038;-52
2023/09/12 04:26:08;;;;;;;2.95;2.17;;;23.50;73.60;;;;;;6429800;27;20047;-48
2023/09/12 04:29:10;;;;;;;5.13;2.15;;;23.50;71.00;;;;;;6430129;27;20035;-52
2023/09/12 04:32:12;;;;;;;3.35;2.00;;;23.40;73.80;;;;;;6429926;27;20042;-50
2023/09/12 04:35:14;;;;;;;2.15;1.90;;;23.30;73.60;;;;;;6428099;27;20027;-51
2023/09/12 04:38:15;;;;;;;4.53;1.92;;;23.50;74.10;;;;;;6430708;27;20022;-51
2023/09/12 04:41:21;;;;;;;2.20;2.00;;;23.50;74.10;;;;;;6430803;27;20015;-50
2023/09/12 04:44:23;;;;;;;3.20;1.92;;;23.40;74.20;;;;;;6430579;27;20039;-46
2023/09/12 04:47:25;;;;;;;2.58;1.63;;;23.20;74.10;;;;;;6430237;27;20030;-48
2023/09/12 04:50:28;;;;;;;2.35;1.60;;;23.30;74.10;;;;;;6431166;27;20087;-52
2023/09/12 04:53:34;;;;;;;3.35;1.50;;;23.40;74.20;;;;;;6430275;27;20103;-51
2023/09/12 04:56:37;;;;;;;2.72;1.80;;;23.30;74.10;;;;;;6413202;27;20078;-50
2023/09/12 04:59:38;;;;;;;;;;;23.40;74.20;;;;;;6429955;27;20042;-49
2023/09/12 05:02:40;;;;;;;1.33;1.23;;;23.40;74.60;;;;;;6427777;27;19950;-49
2023/09/12 05:05:45;;;;;;;1.80;1.40;;;23.50;74.30;;;;;;6421838;27;20047;-47
2023/09/12 05:08:49;;;;;;;4.03;1.30;;;23.40;74.30;;;;;;6423132;27;20064;-47
2023/09/12 05:11:51;;;;;;;2.45;1.40;;;23.40;74.20;;;;;;6425299;27;20011;-49
2023/09/12 05:14:53;;;;;;;1.38;1.10;;;23.30;74.50;;;;;;6422922;27;20042;-49
2023/09/12 05:17:56;;;;;;;2.90;1.42;;;23.50;74.50;;;;;;6426664;27;20032;-50
2023/09/12 05:20:58;;;;;;;2.90;1.05;;;23.50;74.50;;;;;;6427879;27;20039;-51
2023/09/12 05:23:59;;;;;;;2.78;1.65;;;23.50;74.50;;;;;;6427768;27;20035;-51
2023/09/12 05:27:01;;;;;;;1.88;0.93;;;23.40;74.50;;;;;;6426111;27;20026;-48
2023/09/12 05:30:06;;;;;;;2.05;1.02;;;23.40;74.50;;;;;;6432531;27;20010;-50
2023/09/12 05:33:08;;;;;;;1.60;1.00;;;23.40;74.40;;;;;;6430671;27;20030;-48
2023/09/12 05:36:12;;;;;;;1.48;1.00;;;23.40;74.90;;;;;;6414440;27;20015;-49
2023/09/12 05:39:14;;;;;;;3.10;1.45;;;23.40;74.50;;;;;;6431311;27;20055;-47
2023/09/12 05:42:20;;;;;;;1.75;1.40;;;23.50;74.30;;;;;;6432320;27;20023;-50
2023/09/12 05:45:23;;;;;;;7.55;2.28;;;23.30;74.40;;;;;;6389813;27;20035;-53
2023/09/12 05:48:25;;;;;;;1.80;1.10;;;23.30;74.50;;;;;;6373758;27;20173;-55
2023/09/12 05:51:30;;;;;;;1.13;0.77;;;23.40;74.70;;;;;;6376764;27;20030;-56
2023/09/12 05:54:31;;;;;;;2.70;1.65;;;23.50;74.60;;;;;;6374224;27;20038;-56
2023/09/12 05:57:38;;;;;;;3.35;1.90;;;23.50;74.70;;;;;;6372235;27;20492;-55
2023/09/12 06:00:41;;;;;;;3.33;1.92;;;23.30;72.80;;;;;;6377115;27;20031;-53
2023/09/12 06:03:45;;;;;;;1.98;1.48;;;23.30;74.90;;;;;;6373847;27;20039;-53
2023/09/12 06:06:47;;;;;;;4.80;2.53;;;23.40;74.70;;;;;;6369922;27;20038;-55
2023/09/12 06:09:49;;;;;;;4.50;2.30;;;23.20;74.90;;;;;;6355441;27;20045;-55
2023/09/12 06:12:53;;;;;;;3.47;1.65;;;23.40;74.90;;;;;;6371337;27;20042;-54
2023/09/12 06:15:55;;;;;;;3.92;1.70;;;23.30;75.20;;;;;;6366128;27;20038;-54
2023/09/12 06:18:57;;;;;;;3.10;1.60;;;23.30;75.10;;;;;;6369281;27;20031;-53
2023/09/12 06:21:59;;;;;;;3.08;1.42;;;23.10;75.00;;;;;;6368846;27;20118;-52
2023/09/12 06:25:01;;;;;;;2.03;1.20;;;23.10;74.90;;;;;;6370822;27;20145;-54
2023/09/12 06:28:05;;;;;;;1.20;0.90;;;23.30;75.10;;;;;;6368356;27;20055;-54
2023/09/12 06:31:10;;;;;;;4.78;2.00;;;23.30;74.90;;;;;;6348740;27;20031;-54
2023/09/12 06:34:15;;;;;;;2.95;1.20;;;23.30;75.50;;;;;;6319210;27;20187;-55
2023/09/12 06:37:17;;;;;;;1.40;1.13;;;23.50;75.20;;;;;;6364194;27;20034;-53
2023/09/12 06:40:18;;;;;;;2.80;2.05;;;23.00;74.90;;;;;;6362500;27;20027;-52
2023/09/12 06:43:20;;;;;;;4.45;2.70;;;23.40;75.00;;;;;;6368443;27;20035;-54
2023/09/12 06:46:21;;;;;;;3.88;2.15;;;23.60;75.00;;;;;;6370184;27;20035;-55
2023/09/12 06:49:23;;;;;;;2.70;2.38;;;23.40;74.70;;;;;;6367760;27;20115;-52
2023/09/12 06:52:25;;;;;;;2.72;2.25;;;23.30;74.70;;;;;;6369566;27;20038;-54
2023/09/12 06:55:28;;;;;;;4.00;2.47;;;23.40;74.50;;;;;;6370483;27;20046;-52
2023/09/12 06:58:30;;;;;;;3.17;2.30;;;23.50;74.90;;;;;;6343950;27;20528;-50
2023/09/12 07:01:35;;;;;;;2.95;2.28;;;23.30;74.80;;;;;;6335985;27;20038;-54
2023/09/12 07:04:37;;;;;;;3.83;2.83;;;23.30;75.00;;;;;;6308359;27;20030;-53
2023/09/12 07:07:38;;;;;;;5.07;2.92;;;23.40;74.90;;;;;;6346315;27;20087;-53
2023/09/12 07:10:45;;;;;;;5.07;3.03;;;23.40;75.50;;;;;;6327465;27;20030;-55
2023/09/12 07:13:48;;;;;;;4.43;2.75;;;22.90;74.90;;;;;;6327325;27;20027;-54
2023/09/12 07:16:51;;;;;;;5.15;2.65;;;23.20;75.50;;;;;;6359911;27;20030;-54
2023/09/12 07:19:53;;;;;;;3.38;1.58;;;23.30;76.70;;;;;;6352540;27;20039;-53
2023/09/12 14:11:27;;;;;;;2.28;1.27;;;23.70;75.30;;;;;;6415328;27;20297;-57
2023/09/12 14:14:37;;;;;;;2.72;1.15;;;23.80;68.00;;;;;;6407044;27;20300;-57
2023/09/12 14:17:41;;;;;;;1.75;1.02;;;24.00;69.00;;;;;;6418334;27;20030;-57
2023/09/12 14:20:57;;;;;;;3.95;1.10;;;24.00;67.70;;;;;;6418318;27;20026;-57
2023/09/12 14:24:00;;;;;;;1.15;1.00;;;24.20;66.50;;;;;;6396518;27;20038;-57
2023/09/12 14:27:03;;;;;;;1.48;1.08;;;23.90;64.60;;;;;;6404258;27;20125;-54
2023/09/12 14:30:06;;;;;;;2.30;1.10;;;24.10;64.30;;;;;;6407054;27;20148;-57
2023/09/12 14:33:09;;;;;;;3.55;1.15;;;24.50;64.20;;;;;;6405936;27;20794;-57
2023/09/12 14:36:13;;;;;;;4.80;1.10;;;24.70;64.30;;;;;;6394971;27;20034;-57
2023/09/12 14:39:15;;;;;;;1.52;1.10;;;24.70;64.10;;;;;;6406654;27;20049;-55
2023/09/12 14:42:17;;;;;;;2.13;1.02;;;24.80;64.10;;;;;;6468408;27;20034;-48
2023/09/12 14:45:19;;;;;;;2.15;0.73;;;24.80;64.00;;;;;;6474774;27;20055;-48
2023/09/12 14:48:22;;;;;;;1.40;1.00;;;24.80;63.90;;;;;;6461263;27;20219;-45
2023/09/12 14:51:26;;;;;;;2.35;1.00;;;24.60;63.70;;;;;;6464312;27;20024;-47
2023/09/12 14:54:34;;;;;;;3.45;1.13;;;24.90;63.60;;;;;;6461735;27;20038;-47
2023/09/12 14:57:37;;;;;;;3.72;1.10;;;24.90;63.40;;;;;;6465895;27;20043;-46
2023/09/12 15:00:40;;;;;;;2.05;1.13;;;24.80;63.20;;;;;;6438848;27;20031;-46
2023/09/12 15:03:41;;;;;;;1.00;0.82;;;24.80;63.10;;;;;;6433260;27;20050;-49
2023/09/12 15:06:43;;;;;;;1.80;1.20;;;24.70;63.10;;;;;;6434135;27;20045;-44
2023/09/12 15:09:45;;;;;;;1.67;1.20;;;25.10;63.00;;;;;;6439071;27;20031;-48
2023/09/12 15:12:50;;;;;;;1.60;1.05;;;24.90;62.90;;;;;;6429250;27;20222;-47
2023/09/12 15:15:52;;;;;;;3.35;1.48;;;24.90;63.20;;;;;;6433537;27;20022;-44
2023/09/12 15:18:56;;;;;;;1.70;0.98;;;25.10;62.80;;;;;;6442994;27;20030;-45
2023/09/12 15:21:58;;;;;;;6.43;1.38;;;25.00;62.50;;;;;;6426219;27;20042;-44
2023/09/12 15:25:00;;;;;;;1.60;1.10;;;25.30;62.80;;;;;;6423438;27;20039;-48
2023/09/12 15:28:02;;;;;;;1.85;0.95;;;25.00;62.50;;;;;;6408249;27;20099;-44
2023/09/12 15:31:04;;;;;;;2.53;1.13;;;25.10;62.60;;;;;;6420429;27;20303;-44
2023/09/12 15:34:06;;;;;;;2.00;1.10;;;24.90;62.30;;;;;;6425074;27;20035;-47
2023/09/12 15:37:09;;;;;;;3.28;1.00;;;25.10;62.60;;;;;;6427274;27;20037;-45
2023/09/12 15:40:24;;;;;;;2.08;1.23;;;25.20;62.50;;;;;;6430722;27;20043;-44
2023/09/12 15:43:26;;;;;;;2.03;0.82;;;25.10;62.20;;;;;;6427938;27;20078;-44
2023/09/12 15:46:28;;;;;;;1.08;0.88;;;25.20;62.10;;;;;;6421260;27;20061;-43
2023/09/12 15:49:38;;;;;;;1.42;1.02;;;25.10;62.00;;;;;;6421869;27;20042;-47
2023/09/12 15:52:40;;;;;;;2.60;0.77;;;25.20;61.90;;;;;;6416537;27;20043;-46
2023/09/12 15:55:42;;;;;;;1.52;0.93;;;25.40;64.30;;;;;;6394580;27;20243;-44
2023/09/12 15:58:47;;;;;;;1.10;0.82;;;25.30;64.30;;;;;;6366039;27;20083;-49
2023/09/12 16:01:51;;;;;;;0.80;0.70;;;25.30;64.50;;;;;;6380479;27;20079;-46
2023/09/12 16:04:53;;;;;;;1.83;1.13;;;25.30;62.60;;;;;;6387184;27;20076;-45
2023/09/12 16:07:55;;;;;;;1.83;1.00;;;25.40;64.10;;;;;;6396136;27;20027;-43
2023/09/12 16:10:56;;;;;;;2.00;1.00;;;25.20;63.50;;;;;;6397915;27;20035;-47
2023/09/12 16:13:59;;;;;;;1.95;1.10;;;25.20;63.60;;;;;;6367833;27;20042;-56
2023/09/12 16:17:01;;;;;;;1.45;1.00;;;25.30;63.30;;;;;;6356030;27;20037;-54
2023/09/12 16:20:03;;;;;;;1.95;0.82;;;25.40;64.00;;;;;;6356211;27;20050;-54
2023/09/12 16:23:05;;;;;;;2.15;0.90;;;25.30;64.50;;;;;;6365352;27;20729;-54
2023/09/12 16:26:06;;;;;;;2.08;0.70;;;25.20;64.00;;;;;;6362741;27;20022;-55
2023/09/12 16:29:09;;;;;;;1.50;0.75;;;25.30;63.60;;;;;;6364198;27;20034;-55
2023/09/12 16:32:10;;;;;;;1.50;0.70;;;25.30;63.90;;;;;;6367005;27;20440;-55
2023/09/12 16:35:12;;;;;;;1.50;0.60;;;25.30;63.50;;;;;;6372490;27;20042;-56
2023/09/12 16:38:13;;;;;;;1.10;0.60;;;25.30;63.90;;;;;;6372029;27;20034;-51
2023/09/12 16:41:15;;;;;;;1.02;0.50;;;25.40;63.90;;;;;;6374715;27;20034;-51
2023/09/12 16:44:17;;;;;;;0.68;0.50;;;25.30;63.90;;;;;;6373619;27;20428;-51
2023/09/12 16:47:22;;;;;;;0.80;0.70;;;25.10;63.50;;;;;;6377040;27;20113;-52
2023/09/12 16:50:25;;;;;;;1.35;0.38;;;25.40;64.10;;;;;;6376808;27;20041;-51
2023/09/12 16:53:27;;;;;;;0.50;0.47;;;25.30;63.90;;;;;;6357151;27;20123;-53
2023/09/12 16:56:31;;;;;;;0.57;0.40;;;25.40;64.20;;;;;;6379872;27;20390;-54
2023/09/12 16:59:33;;;;;;;1.15;0.60;;;25.40;63.90;;;;;;6365266;27;20118;-52
2023/09/12 17:02:38;;;;;;;0.75;0.65;;;25.40;64.20;;;;;;6365826;27;20140;-53
2023/09/12 17:05:39;;;;;;;0.50;0.40;;;25.40;64.10;;;;;;6381538;27;20045;-52
2023/09/12 17:08:41;;;;;;;1.27;0.50;;;25.40;64.40;;;;;;6380380;27;20087;-52
2023/09/12 17:11:45;;;;;;;0.63;0.38;;;25.50;64.40;;;;;;6378384;27;20067;-51
2023/09/12 17:14:47;;;;;;;0.60;0.43;;;25.50;64.60;;;;;;6371084;27;20083;-52
2023/09/12 17:17:49;;;;;;;1.48;0.40;;;25.40;64.20;;;;;;6374025;27;20585;-52
2023/09/12 17:20:50;;;;;;;1.13;0.65;;;25.30;64.40;;;;;;6376374;27;20035;-52
2023/09/12 17:23:52;;;;;;;0.40;0.40;;;25.50;64.40;;;;;;6380232;27;20042;-54
2023/09/12 17:26:54;;;;;;;0.52;0.40;;;25.50;64.60;;;;;;6375205;27;20038;-51
2023/09/12 17:29:56;;;;;;;0.50;0.47;;;25.50;64.30;;;;;;6379618;27;20632;-52
2023/09/12 17:32:59;;;;;;;0.57;0.30;;;25.60;64.50;;;;;;6376038;27;20034;-53
2023/09/12 17:36:02;;;;;;;0.35;0.30;;;25.60;64.50;;;;;;6354969;27;20035;-52
2023/09/12 17:39:05;;;;;;;0.60;0.30;;;25.50;64.50;;;;;;6374556;27;20092;-50
2023/09/12 17:42:09;;;;;;;0.38;0.38;;;25.50;64.30;;;;;;6378487;27;20091;-54
2023/09/12 17:45:11;;;;;;;0.63;0.30;;;25.50;64.30;;;;;;6381668;27;20609;-50
2023/09/12 17:48:15;;;;;;;0.40;0.20;;;25.50;64.30;;;;;;6383391;27;20437;-51
2023/09/12 17:51:17;;;;;;;0.35;0.32;;;25.50;64.40;;;;;;6383346;27;20041;-53
2023/09/12 17:54:18;;;;;;;0.20;0.20;;;25.50;64.40;;;;;;6381427;27;20042;-49
2023/09/12 17:57:20;;;;;;;0.30;0.30;;;25.20;64.30;;;;;;6382186;27;20104;-50
2023/09/12 18:00:27;;;;;;;0.40;0.20;;;25.30;64.10;;;;;;6384090;27;20066;-50
2023/09/12 18:03:29;;;;;;;0.30;0.25;;;25.50;64.30;;;;;;6384627;27;20027;-52
2023/09/12 18:06:34;;;;;;;0.30;0.28;;;25.40;64.20;;;;;;6366823;27;20120;-49
2023/09/12 18:09:36;;;;;;;0.30;0.30;;;26.20;65.00;;;;;;6384285;27;20588;-53
2023/09/12 18:12:39;;;;;;;0.60;0.40;;;24.90;63.90;;;;;;6383206;27;20074;-53
2023/09/12 18:15:41;;;;;;;0.40;0.40;;;25.50;64.70;;;;;;6383270;27;20047;-52
2023/09/12 18:18:43;;;;;;;0.40;0.40;;;25.40;64.20;;;;;;6382776;27;20031;-50
2023/09/12 18:21:45;;;;;;;0.30;0.25;;;25.30;64.60;;;;;;6384189;27;20058;-50
2023/09/12 18:24:46;;;;;;;0.30;0.20;;;25.30;64.20;;;;;;6382622;27;20035;-52
2023/09/12 18:27:48;;;;;;;0.30;0.30;;;25.30;64.60;;;;;;6384228;27;20554;-53
2023/09/12 18:30:51;;;;;;;0.40;0.30;;;24.90;64.10;;;;;;6382840;27;20042;-53
2023/09/12 18:33:55;;;;;;;0.63;0.40;;;25.30;64.50;;;;;;6379129;27;20063;-51
2023/09/12 18:36:57;;;;;;;0.30;0.22;;;25.30;64.40;;;;;;6382594;27;20038;-49
2023/09/12 18:39:59;;;;;;;0.35;0.35;;;25.00;64.20;;;;;;6382698;27;20042;-51
2023/09/12 18:43:00;;;;;;;0.40;0.20;;;25.20;64.20;;;;;;6383066;27;20046;-54
2023/09/12 18:46:05;;;;;;;0.22;0.20;;;25.00;64.40;;;;;;6383025;27;20096;-53
2023/09/12 18:49:07;;;;;;;0.20;0.20;;;25.30;64.30;;;;;;6382519;27;21911;-51
2023/09/12 18:52:09;;;;;;;0.30;0.30;;;25.10;64.30;;;;;;6382726;27;20039;-53
2023/09/12 18:55:13;;;;;;;0.20;0.20;;;25.30;62.60;;;;;;6382257;27;20039;-53
2023/09/12 18:58:17;;;;;;;0.60;0.35;;;25.00;64.30;;;;;;6387602;27;20039;-51
2023/09/12 19:01:19;;;;;;;0.55;0.30;;;25.30;64.40;;;;;;6368484;27;20042;-53
2023/09/12 19:04:23;;;;;;;0.60;0.28;;;25.30;64.40;;;;;;6369107;27;20053;-50
2023/09/12 19:07:28;;;;;;;1.02;0.30;;;25.30;64.10;;;;;;6370487;27;20142;-54
2023/09/12 19:10:32;;;;;;;0.20;0.20;;;25.10;64.20;;;;;;6388313;27;20042;-55
2023/09/12 19:13:34;;;;;;;0.15;0.10;;;25.30;64.00;;;;;;6388748;27;20034;-55
2023/09/12 19:16:36;;;;;;;0.20;0.20;;;25.10;64.10;;;;;;6388484;27;20030;-55
2023/09/12 19:19:38;;;;;;;0.28;0.22;;;25.20;63.90;;;;;;6388460;27;20095;-54
2023/09/12 19:22:40;;;;;;;0.30;0.30;;;25.30;64.20;;;;;;6388643;27;20686;-54
2023/09/12 19:25:47;;;;;;;0.25;0.25;;;25.20;64.00;;;;;;6388541;27;20072;-55
2023/09/12 19:28:49;;;;;;;0.50;0.30;;;24.90;63.90;;;;;;6388437;27;20046;-55
2023/09/12 19:31:51;;;;;;;0.20;0.20;;;25.20;63.90;;;;;;6388609;27;20034;-53
2023/09/12 19:34:57;;;;;;;0.30;0.30;;;25.20;64.00;;;;;;6386903;27;20031;-53
2023/09/12 19:38:01;;;;;;;0.13;0.10;;;24.00;63.00;;;;;;6387134;27;20031;-53
2023/09/12 19:41:03;;;;;;;0.32;0.32;;;25.10;63.60;;;;;;6386668;27;20038;-54
2023/09/12 19:44:05;;;;;;;0.57;0.40;;;25.00;63.40;;;;;;6388040;27;20556;-54
2023/09/12 19:47:08;;;;;;;0.30;0.20;;;25.00;63.50;;;;;;6388828;27;20109;-53
2023/09/12 19:50:12;;;;;;;0.82;0.32;;;25.10;63.30;;;;;;6389417;27;20624;-54
2023/09/12 19:53:16;;;;;;;0.28;0.20;;;24.70;63.10;;;;;;6389859;27;20046;-54
2023/09/12 19:56:17;;;;;;;0.20;0.20;;;25.20;63.40;;;;;;6389451;27;20034;-55
2023/09/12 19:59:19;;;;;;;0.45;0.28;;;25.10;63.30;;;;;;6388626;27;20038;-55
2023/09/12 20:02:21;;;;;;;0.30;0.20;;;25.10;63.10;;;;;;6388952;27;20035;-55
2023/09/12 20:05:23;;;;;;;0.40;0.30;;;25.00;63.00;;;;;;6388594;27;20608;-54
2023/09/12 20:08:26;;;;;;;0.20;0.20;;;24.90;63.00;;;;;;6388754;27;20452;-55
2023/09/12 20:11:27;;;;;;;0.43;0.30;;;25.10;63.20;;;;;;6387874;27;20034;-53
2023/09/12 20:14:29;;;;;;;1.10;0.25;;;24.80;62.70;;;;;;6388434;27;20489;-54
2023/09/12 20:17:31;;;;;;;0.43;0.20;;;24.90;63.00;;;;;;6388102;27;20437;-54
2023/09/12 20:20:34;;;;;;;0.20;0.20;;;25.00;62.40;;;;;;6388043;27;20130;-54
2023/09/12 20:23:36;;;;;;;0.43;0.30;;;24.90;62.90;;;;;;6371990;27;20031;-55
2023/09/12 20:26:37;;;;;;;0.57;0.55;;;25.00;62.80;;;;;;6370487;27;20035;-54
2023/09/12 20:29:39;;;;;;;0.38;0.30;;;25.00;62.70;;;;;;6389126;27;20039;-55
2023/09/12 20:32:42;;;;;;;0.30;0.22;;;25.00;62.70;;;;;;6389625;27;20042;-52
2023/09/12 20:35:58;;;;;;;0.20;0.20;;;25.00;62.60;;;;;;6388967;27;20042;-55
2023/09/12 20:39:19;;;;;;;0.47;0.30;;;24.90;62.10;;;;;;6388261;27;20038;-52
2023/09/12 20:42:21;;;;;;;;;;;24.90;62.20;;;;;;6389782;27;20051;-53
2023/09/12 20:45:22;;;;;;;0.38;0.28;;;24.20;62.30;;;;;;6389763;27;19922;-51
2023/09/12 20:48:31;;;;;;;0.55;0.30;;;24.60;62.40;;;;;;6388922;27;20497;-53
2023/09/12 20:51:34;;;;;;;0.40;0.25;;;24.60;62.00;;;;;;6388518;27;20035;-54
2023/09/12 20:54:37;;;;;;;0.25;0.20;;;25.10;62.20;;;;;;6388101;27;20034;-54
2023/09/12 20:57:40;;;;;;;0.52;0.40;;;24.50;61.40;;;;;;6388457;27;20398;-53
2023/09/12 21:00:43;;;;;;;0.50;0.30;;;24.90;59.40;;;;;;6388059;27;20042;-54
2023/09/12 21:03:48;;;;;;;0.65;0.30;;;24.80;61.80;;;;;;6387501;27;20718;-53
2023/09/12 21:06:51;;;;;;;0.30;0.20;;;24.80;61.80;;;;;;6388531;27;20099;-53
2023/09/12 21:09:52;;;;;;;0.40;0.30;;;24.70;61.50;;;;;;6388743;27;20041;-52
2023/09/12 21:12:54;;;;;;;0.60;0.30;;;24.90;61.80;;;;;;6389810;27;20034;-52
2023/09/12 21:15:58;;;;;;;0.43;0.30;;;24.90;61.20;;;;;;6389516;27;20663;-51
2023/09/12 21:19:00;;;;;;;0.40;0.40;;;24.70;61.60;;;;;;6389207;27;20083;-52
2023/09/12 21:22:03;;;;;;;0.40;0.28;;;24.80;61.40;;;;;;6388978;27;20043;-53
2023/09/12 21:25:05;;;;;;;0.68;0.30;;;24.70;61.20;;;;;;6389499;27;20038;-53
2023/09/12 21:28:07;;;;;;;0.25;0.20;;;24.80;60.60;;;;;;6390262;27;20035;-54
2023/09/12 21:31:08;;;;;;;0.60;0.38;;;25.60;61.70;;;;;;6389689;27;20559;-53
2023/09/12 21:34:11;;;;;;;0.20;0.20;;;24.70;61.10;;;;;;6389375;27;20041;-54
2023/09/12 21:37:13;;;;;;;0.32;0.30;;;24.60;61.20;;;;;;6388464;27;20042;-51
2023/09/12 21:40:17;;;;;;;0.70;0.30;;;24.60;60.80;;;;;;6387438;27;20062;-54
2023/09/12 21:43:19;;;;;;;0.50;0.30;;;24.70;60.80;;;;;;6387162;27;20469;-53
2023/09/12 21:46:20;;;;;;;0.40;0.40;;;24.60;60.00;;;;;;6370612;27;20088;-54
2023/09/12 21:49:23;;;;;;;0.43;0.30;;;24.40;60.40;;;;;;6389086;27;20054;-54
2023/09/12 21:52:24;;;;;;;0.40;0.30;;;24.60;60.20;;;;;;6388607;27;20039;-53
2023/09/12 21:55:26;;;;;;;0.90;0.60;;;24.70;60.60;;;;;;6389772;27;20409;-53
2023/09/12 21:58:28;;;;;;;0.50;0.35;;;24.70;60.20;;;;;;6389403;27;20035;-53
2023/09/12 22:01:29;;;;;;;0.50;0.40;;;24.70;60.20;;;;;;6370763;27;20046;-53
2023/09/12 22:04:31;;;;;;;0.82;0.50;;;24.60;60.00;;;;;;6389212;27;20035;-52
2023/09/12 22:07:33;;;;;;;0.40;0.30;;;24.70;60.00;;;;;;6389398;27;20035;-52
2023/09/12 22:10:37;;;;;;;0.60;0.40;;;24.30;59.50;;;;;;6389283;27;20038;-53
2023/09/12 22:13:39;;;;;;;0.57;0.30;;;24.60;59.80;;;;;;6369500;27;20118;-52
2023/09/12 22:16:40;;;;;;;0.50;0.30;;;24.50;59.70;;;;;;6386776;27;20035;-51
2023/09/12 22:19:43;;;;;;;0.80;0.35;;;24.50;59.80;;;;;;6387045;27;20037;-53
2023/09/12 22:22:46;;;;;;;0.50;0.38;;;24.60;60.30;;;;;;6387440;27;20027;-54
2023/09/12 22:25:48;;;;;;;0.60;0.40;;;24.50;59.70;;;;;;6387940;27;20113;-53
2023/09/12 22:28:49;;;;;;;0.40;0.30;;;24.30;59.50;;;;;;6388025;27;20035;-52
2023/09/12 22:31:53;;;;;;;0.63;0.47;;;24.30;59.50;;;;;;6391054;27;20043;-54
2023/09/12 22:34:56;;;;;;;0.57;0.43;;;24.40;59.60;;;;;;6393193;27;20038;-52
2023/09/12 22:38:00;;;;;;;0.60;0.40;;;24.50;91.40;;;;;;6392018;27;20038;-54
2023/09/12 22:41:02;;;;;;;0.50;0.30;;;24.60;65.20;;;;;;6393235;27;20043;-53